Time;durP1;ratioP1;P1;durP2;ratioP2;P2;SDS_P1;SDS_P2;PMS_P1;PMS_P2;Temp;Humidity;BMP_temperature;BMP_pressure;BME280_temperature;BME280_humidity;BME280_pressure;Samples;Min_cycle;Max_cycle;Signal;HPM_P1;HPM_P2
2022/08/23 00:02:27;;;;;;;;;;;;;;;19.07;100.00;101439.16;5050827;28;19970;-32
2022/08/23 00:04:55;;;;;;;;;;;;;;;19.05;100.00;101435.81;5053302;28;19932;-42
2022/08/23 00:07:36;;;;;;;;;;;;;;;19.05;100.00;101435.81;5054689;28;20019;-36
2022/08/23 00:10:06;;;;;;;;;;;;;;;19.04;100.00;101435.00;5054949;28;19947;-31
2022/08/23 00:12:34;;;;;;;;;;;;;;;19.07;100.00;101436.31;5055072;28;20298;-39
2022/08/23 00:15:01;;;;;;;;;;;;;;;19.04;100.00;101437.81;5054461;28;19935;-34
2022/08/23 00:17:30;;;;;;;;;;;;;;;19.04;100.00;101431.34;5054540;28;19948;-39
2022/08/23 00:20:01;;;;;;;;;;;;;;;19.03;100.00;101433.34;5053564;28;20418;-34
2022/08/23 00:22:29;;;;;;;;;;;;;;;19.06;100.00;101437.50;5054152;28;19943;-31
2022/08/23 00:24:56;;;;;;;;;;;;;;;19.05;100.00;101433.00;5054860;28;19939;-37
2022/08/23 00:27:24;;;;;;;;;;;;;;;19.06;100.00;101434.66;5054634;28;19925;-40
2022/08/23 00:29:54;;;;;;;;;;;;;;;19.06;100.00;101429.84;5053013;28;19928;-32
2022/08/23 00:32:22;;;;;;;;;;;;;;;19.08;100.00;101430.31;5054463;28;19935;-35
2022/08/23 00:34:51;;;;;;;;;;;;;;;19.12;100.00;101425.63;5054585;28;19955;-35
2022/08/23 00:37:20;;;;;;;;;;;;;;;19.13;100.00;101429.28;5054236;28;20022;-37
2022/08/23 00:39:48;;;;;;;;;;;;;;;19.12;100.00;101434.13;5054621;28;20647;-39
2022/08/23 00:47:58;;;;;;;;;;;;;;;19.16;100.00;101425.78;5045383;28;19925;-36
2022/08/23 00:50:29;;;;;;;;;;;;;;;19.15;100.00;101424.97;5053957;28;19935;-37
2022/08/23 00:53:02;;;;;;;;;;;;;;;19.17;100.00;101425.44;5044116;28;20394;-34
2022/08/23 00:55:30;;;;;;;;;;;;;;;19.18;100.00;101420.63;5052878;28;19924;-37
2022/08/23 00:57:58;;;;;;;;;;;;;;;19.20;100.00;101426.72;5053553;28;19932;-32
2022/08/23 01:00:26;;;;;;;;;;;;;;;19.20;100.00;101415.41;5054134;28;19925;-33
2022/08/23 01:02:55;;;;;;;;;;;;;;;19.20;100.00;101427.56;5054505;28;20266;-30
2022/08/23 01:05:25;;;;;;;;;;;;;;;19.22;100.00;101427.22;5053490;28;19925;-38
2022/08/23 01:07:56;;;;;;;;;;;;;;;19.22;100.00;101425.22;5052628;28;20358;-34
2022/08/23 01:10:26;;;;;;;;;;;;;;;19.23;100.00;101426.03;5053975;28;19967;-34
2022/08/23 01:12:58;;;;;;;;;;;;;;;19.24;100.00;101428.53;5052400;28;20378;-33
2022/08/23 01:15:28;;;;;;;;;;;;;;;19.26;100.00;101422.53;5053317;28;19931;-35
2022/08/23 01:18:01;;;;;;;;;;;;;;;19.28;100.00;101428.69;5052313;28;20416;-31
2022/08/23 01:20:32;;;;;;;;;;;;;;;19.30;100.00;101426.34;5053953;28;19925;-31
2022/08/23 01:23:04;;;;;;;;;;;;;;;19.32;100.00;101418.34;5053614;28;20015;-31
2022/08/23 01:25:33;;;;;;;;;;;;;;;19.34;100.00;101424.47;5053356;28;20032;-32
2022/08/23 01:28:01;;;;;;;;;;;;;;;19.37;100.00;101428.63;5052422;28;20364;-31
2022/08/23 01:30:31;;;;;;;;;;;;;;;19.37;100.00;101429.47;5052213;28;19924;-31
2022/08/23 01:33:00;;;;;;;;;;;;;;;19.40;100.00;101425.09;5051883;28;19929;-31
2022/08/23 01:35:35;;;;;;;;;;;;;;;19.43;100.00;101421.56;5051767;28;19939;-31
2022/08/23 01:38:04;;;;;;;;;;;;;;;19.45;100.00;101425.72;5052328;28;20019;-42
2022/08/23 01:40:33;;;;;;;;;;;;;;;19.48;100.00;101427.03;5051810;28;19924;-34
2022/08/23 01:43:01;;;;;;;;;;;;;;;19.49;100.00;101421.03;5051914;28;19979;-33
2022/08/23 01:45:30;;;;;;;;;;;;;;;19.50;100.00;101424.72;5051930;28;19924;-33
2022/08/23 01:47:58;;;;;;;;;;;;;;;19.50;100.00;101419.06;5052598;28;20247;-41
2022/08/23 01:50:27;;;;;;;;;;;;;;;19.49;100.00;101415.34;5051611;28;19936;-37
2022/08/23 01:52:55;;;;;;;;;;;;;;;19.48;100.00;101416.53;5051409;28;19925;-40
2022/08/23 01:55:24;;;;;;;;;;;;;;;19.48;100.00;101410.88;5051730;28;19925;-31
2022/08/23 01:57:56;;;;;;;;;;;;;;;19.47;100.00;101416.88;5051522;28;19925;-32
2022/08/23 02:00:29;;;;;;;;;;;;;;;19.45;100.00;101417.22;5051170;28;19989;-31
2022/08/23 02:02:56;;;;;;;;;;;;;;;19.42;100.00;101415.06;5042591;28;20294;-30
2022/08/23 02:05:24;;;;;;;;;;;;;;;19.40;100.00;101411.75;5053029;28;19928;-34
2022/08/23 02:07:52;;;;;;;;;;;;;;;19.37;100.00;101420.13;5051020;28;20263;-31
2022/08/23 02:10:19;;;;;;;;;;;;;;;19.34;100.00;101416.00;5052977;28;20466;-31
2022/08/23 02:12:49;;;;;;;;;;;;;;;19.32;100.00;101415.50;5047643;28;19964;-31
2022/08/23 02:15:18;;;;;;;;;;;;;;;19.30;100.00;101417.84;5052575;28;19932;-33
2022/08/23 02:17:47;;;;;;;;;;;;;;;19.27;100.00;101415.69;5052457;28;19966;-30
2022/08/23 02:20:14;;;;;;;;;;;;;;;19.26;100.00;101414.03;5052167;28;19931;-30
2022/08/23 02:22:43;;;;;;;;;;;;;;;19.25;100.00;101418.03;5050552;28;20027;-34
2022/08/23 02:25:11;;;;;;;;;;;;;;;19.23;100.00;101426.88;5052332;28;19931;-30
2022/08/23 02:27:38;;;;;;;;;;;;;;;19.22;100.00;101415.91;5051745;28;19925;-38
2022/08/23 02:30:12;;;;;;;;;;;;;;;19.20;100.00;101413.41;5048536;28;19925;-38
2022/08/23 02:32:41;;;;;;;;;;;;;;;19.17;100.00;101411.31;5051061;28;20394;-33
2022/08/23 02:35:11;;;;;;;;;;;;;;;19.17;100.00;101421.78;5050524;28;19931;-37
2022/08/23 02:37:38;;;;;;;;;;;;;;;19.17;100.00;101418.97;5051040;28;20008;-30
2022/08/23 02:40:07;;;;;;;;;;;;;;;19.17;100.00;101421.78;5050513;28;19928;-36
2022/08/23 02:42:35;;;;;;;;;;;;;;;19.16;100.00;101422.97;5050593;28;19947;-32
2022/08/23 02:45:02;;;;;;;;;;;;;;;19.15;100.00;101422.13;5050839;28;19928;-31
2022/08/23 02:47:35;;;;;;;;;;;;;;;19.15;100.00;101424.13;5050489;28;20431;-37
2022/08/23 02:50:15;;;;;;;;;;;;;;;19.15;100.00;101418.47;5050315;28;19933;-33
2022/08/23 02:52:43;;;;;;;;;;;;;;;19.13;100.00;101426.47;5050657;28;20461;-30
2022/08/23 02:55:11;;;;;;;;;;;;;;;19.13;100.00;101426.47;5052046;28;20391;-37
2022/08/23 02:57:39;;;;;;;;;;;;;;;19.11;100.00;101428.81;5051400;28;20297;-38
2022/08/23 03:00:10;;;;;;;;;;;;;;;19.07;100.00;101425.84;5050395;28;19936;-34
2022/08/23 03:02:39;;;;;;;;;;;;;;;19.06;100.00;101431.84;5050749;28;20389;-30
2022/08/23 03:05:08;;;;;;;;;;;;;;;19.02;100.00;101434.50;5049619;28;19928;-31
2022/08/23 03:07:37;;;;;;;;;;;;;;;19.01;100.00;101440.50;5050442;28;19967;-30
2022/08/23 03:10:05;;;;;;;;;;;;;;;18.99;100.00;101434.38;5050424;28;20377;-31
2022/08/23 03:12:36;;;;;;;;;;;;;;;18.97;100.00;101434.72;5033515;28;19925;-30
2022/08/23 03:15:05;;;;;;;;;;;;;;;18.96;100.00;101430.25;5049828;28;19972;-31
2022/08/23 03:17:32;;;;;;;;;;;;;;;18.96;100.00;101429.41;5048044;28;19986;-40
2022/08/23 03:20:01;;;;;;;;;;;;;;;18.93;100.00;101431.75;5048166;28;20407;-37
2022/08/23 03:22:31;;;;;;;;;;;;;;;18.92;100.00;101432.91;5048696;28;19925;-32
2022/08/23 03:25:01;;;;;;;;;;;;;;;18.91;100.00;101436.91;5049983;28;19924;-30
2022/08/23 03:27:43;;;;;;;;;;;;;;;18.89;100.00;101439.25;5047625;28;19928;-31
2022/08/23 03:30:12;;;;;;;;;;;;;;;18.87;100.00;101435.94;5046730;28;19935;-31
2022/08/23 03:32:49;;;;;;;;;;;;;;;18.87;100.00;101441.59;5058728;28;20357;-31
2022/08/23 03:35:17;;;;;;;;;;;;;;;18.86;100.00;101442.75;5048844;28;19929;-37
2022/08/23 03:37:45;;;;;;;;;;;;;;;18.85;100.00;101443.09;5049067;28;20378;-36
2022/08/23 03:40:15;;;;;;;;;;;;;;;18.84;100.00;101447.09;5048406;28;19925;-33
2022/08/23 03:42:43;;;;;;;;;;;;;;;18.84;100.00;101444.28;5048418;28;19935;-31
2022/08/23 03:45:13;;;;;;;;;;;;;;;18.84;100.00;101445.09;5048898;28;19975;-32
2022/08/23 03:47:41;;;;;;;;;;;;;;;18.83;100.00;101449.09;5048622;28;20363;-38
2022/08/23 03:50:09;;;;;;;;;;;;;;;18.84;100.00;101442.28;5050326;28;20309;-37
2022/08/23 03:52:39;;;;;;;;;;;;;;;18.84;100.00;101450.75;5048076;28;19964;-32
2022/08/23 03:55:07;;;;;;;;;;;;;;;18.85;100.00;101449.59;5047717;28;20149;-32
2022/08/23 03:57:39;;;;;;;;;;;;;;;18.84;100.00;101453.59;5048260;28;19960;-31
2022/08/23 04:00:08;;;;;;;;;;;;;;;18.86;100.00;101456.91;5046643;28;19925;-31
2022/08/23 04:02:40;;;;;;;;;;;;;;;18.87;100.00;101447.25;5048952;28;19978;-41
2022/08/23 04:05:11;;;;;;;;;;;;;;;18.88;100.00;101457.41;5047949;28;19932;-37
2022/08/23 04:07:56;;;;;;;;;;;;;;;18.89;100.00;101453.41;5047568;28;19925;-31
2022/08/23 04:10:25;;;;;;;;;;;;;;;18.90;100.00;101455.06;5048990;28;19951;-31
2022/08/23 04:12:56;;;;;;;;;;;;;;;18.92;100.00;101452.72;5047609;28;19987;-33
2022/08/23 04:15:24;;;;;;;;;;;;;;;18.93;100.00;101453.56;5048562;28;19983;-31
2022/08/23 04:17:52;;;;;;;;;;;;;;;18.95;100.00;101451.22;5050630;28;20007;-36
2022/08/23 04:20:22;;;;;;;;;;;;;;;18.97;100.00;101462.19;5049253;28;20301;-31
2022/08/23 04:22:55;;;;;;;;;;;;;;;18.97;100.00;101457.34;5048790;28;19932;-31
2022/08/23 04:25:25;;;;;;;;;;;;;;;18.98;100.00;101453.38;5048815;28;19929;-37
2022/08/23 04:28:04;;;;;;;;;;;;;;;18.99;100.00;101449.34;5048369;28;19932;-37
2022/08/23 04:30:33;;;;;;;;;;;;;;;19.00;100.00;101444.50;5049336;28;19929;-30
2022/08/23 04:33:02;;;;;;;;;;;;;;;19.01;100.00;101454.66;5048982;28;19932;-32
2022/08/23 04:35:37;;;;;;;;;;;;;;;19.01;100.00;101454.66;5048167;28;19936;-36
2022/08/23 04:38:04;;;;;;;;;;;;;;;19.01;100.00;101452.66;5039561;28;19935;-31
2022/08/23 04:43:40;;;;;;;;;;;;;;;19.04;100.00;101451.16;5047842;28;20049;-32
2022/08/23 04:46:09;;;;;;;;;;;;;;;19.04;100.00;101454.81;5049248;28;19928;-32
2022/08/23 04:48:37;;;;;;;;;;;;;;;19.03;100.00;101450.31;5048859;28;19931;-33
2022/08/23 04:51:05;;;;;;;;;;;;;;;19.05;100.00;101452.81;5051329;28;20389;-32
2022/08/23 04:53:36;;;;;;;;;;;;;;;19.05;100.00;101459.28;5052704;28;20344;-32
2022/08/23 04:56:23;;;;;;;;;;;;;;;19.07;100.00;101461.78;5053154;28;20393;-32
2022/08/23 04:58:54;;;;;;;;;;;;;;;19.06;100.00;101452.47;5052417;28;20376;-37
2022/08/23 05:01:24;;;;;;;;;;;;;;;19.08;100.00;101460.59;5052599;28;19940;-31
2022/08/23 05:03:53;;;;;;;;;;;;;;;19.09;100.00;101467.94;5051124;28;20263;-36
2022/08/23 05:06:24;;;;;;;;;;;;;;;19.10;100.00;101461.09;5075061;28;19931;-31
2022/08/23 05:08:51;;;;;;;;;;;;;;;19.12;100.00;101458.75;5053948;28;20389;-37
2022/08/23 05:11:19;;;;;;;;;;;;;;;19.12;100.00;101465.25;5052271;28;20412;-32
2022/08/23 05:13:48;;;;;;;;;;;;;;;19.13;100.00;101466.91;5051785;28;19925;-31
2022/08/23 05:16:17;;;;;;;;;;;;;;;19.15;100.00;101469.41;5052631;28;20423;-36
2022/08/23 05:18:54;;;;;;;;;;;;;;;19.17;100.00;101467.06;5045080;28;19925;-31
2022/08/23 05:21:23;;;;;;;;;;;;;;;19.18;100.00;101471.53;5052333;28;19925;-31
2022/08/23 05:23:51;;;;;;;;;;;;;;;19.21;100.00;101468.00;5051080;28;19963;-31
2022/08/23 05:26:23;;;;;;;;;;;;;;;19.23;100.00;101468.50;5051941;28;20340;-32
2022/08/23 05:28:51;;;;;;;;;;;;;;;19.25;100.00;101472.63;5053200;28;19941;-33
2022/08/23 05:31:26;;;;;;;;;;;;;;;19.28;100.00;101468.31;5051881;28;19929;-31
2022/08/23 05:33:57;;;;;;;;;;;;;;;19.30;100.00;101465.97;5051901;28;19929;-35
2022/08/23 05:37:00;;;;;;;;;;;;;;;19.34;100.00;101475.44;5038973;28;19942;-34
2022/08/23 05:39:33;;;;;;;;;;;;;;;19.37;100.00;101471.09;5051682;28;19928;-32
2022/08/23 05:42:10;;;;;;;;;;;;;;;19.40;100.00;101473.19;5048539;28;20386;-39
2022/08/23 05:44:38;;;;;;;;;;;;;;;19.44;100.00;101474.19;5053289;28;19931;-37
2022/08/23 05:47:10;;;;;;;;;;;;;;;19.48;100.00;101478.81;5046312;28;20024;-33
2022/08/23 05:50:10;;;;;;;;;;;;;;;19.55;100.00;101478.31;5044943;28;20023;-34
2022/08/23 05:52:38;;;;;;;;;;;;;;;19.58;100.00;101484.06;5051522;28;19947;-31
2022/08/23 05:55:07;;;;;;;;;;;;;;;19.63;100.00;101488.72;5052913;28;20394;-39
2022/08/23 05:57:37;;;;;;;;;;;;;;;19.66;100.00;101490.03;5052989;28;19925;-32
2022/08/23 06:00:07;;;;;;;;;;;;;;;19.69;100.00;101490.16;5050801;28;20396;-40
2022/08/23 06:02:48;;;;;;;;;;;;;;;19.73;100.00;101484.66;5051718;28;19925;-38
2022/08/23 06:05:18;;;;;;;;;;;;;;;19.77;100.00;101485.63;5051152;28;20299;-33
2022/08/23 06:07:46;;;;;;;;;;;;;;;19.78;100.00;101478.78;5050850;28;19968;-30
2022/08/23 06:10:18;;;;;;;;;;;;;;;19.82;100.00;101486.22;5050707;28;20002;-32
2022/08/23 06:12:50;;;;;;;;;;;;;;;19.87;100.00;101486.00;5051008;28;19933;-33
2022/08/23 06:15:19;;;;;;;;;;;;;;;19.89;100.00;101478.00;5051066;28;20390;-33
2022/08/23 06:17:48;;;;;;;;;;;;;;;19.92;100.00;101485.81;5051887;28;19929;-31
2022/08/23 06:20:15;;;;;;;;;;;;;;;19.98;100.00;101483.59;5050345;28;19924;-34
2022/08/23 06:23:09;;;;;;;;;;;;;;;20.06;100.00;101494.00;5049458;28;19947;-35
2022/08/23 06:25:39;;;;;;;;;;;;;;;20.13;100.00;101491.44;5049986;28;19929;-36
2022/08/23 06:28:12;;;;;;;;;;;;;;;20.18;100.00;101488.38;5049936;28;19925;-40
2022/08/23 06:30:41;;;;;;;;;;;;;;;20.23;100.00;101488.16;5050852;28;20389;-34
2022/08/23 06:33:21;;;;;;;;;;;;;;;20.29;100.00;101486.75;5049710;28;19925;-37
2022/08/23 06:36:13;;;;;;;;;;;;;;;20.39;100.00;101488.34;5050408;28;20187;-35
2022/08/23 06:38:58;;;;;;;;;;;;;;;20.45;100.00;101491.78;5041118;28;19929;-41
2022/08/23 06:41:51;;;;;;;;;;;;;;;20.50;100.00;101492.41;5048399;28;20027;-38
2022/08/23 06:44:27;;;;;;;;;;;;;;;20.60;100.00;101496.78;5050241;28;19936;-35
2022/08/23 06:47:15;;;;;;;;;;;;;;;20.82;100.00;101495.50;5038676;28;19971;-37
2022/08/23 06:49:48;;;;;;;;;;;;;;;21.05;100.00;101495.88;5039745;28;19952;-34
2022/08/23 06:52:46;;;;;;;;;;;;;;;21.45;100.00;101496.81;5038273;28;20336;-36
2022/08/23 06:55:23;;;;;;;;;;;;;;;21.95;100.00;101507.69;5048775;28;19933;-38
2022/08/23 06:58:04;;;;;;;;;;;;;;;22.46;100.00;101505.09;5050613;28;19925;-33
2022/08/23 07:00:50;;;;;;;;;;;;;;;22.99;100.00;101502.88;5052346;28;19931;-34
2022/08/23 07:03:29;;;;;;;;;;;;;;;23.43;100.00;101506.38;5050946;28;20370;-37
2022/08/23 07:06:27;;;;;;;;;;;;;;;23.79;100.00;101515.78;5051124;28;19978;-31
2022/08/23 07:08:55;;;;;;;;;;;;;;;24.00;100.00;101519.09;5051554;28;19932;-34
2022/08/23 07:11:24;;;;;;;;;;;;;;;24.23;100.00;101514.28;5049714;28;19928;-34
2022/08/23 07:13:52;;;;;;;;;;;;;;;24.45;100.00;101511.88;5049885;28;20432;-34
2022/08/23 07:16:20;;;;;;;;;;;;;;;24.63;99.13;101511.03;5050140;28;19933;-33
2022/08/23 07:18:48;;;;;;;;;;;;;;;24.79;97.24;101519.47;5049937;28;19931;-36
2022/08/23 07:21:18;;;;;;;;;;;;;;;25.10;98.08;101507.00;5049701;28;19978;-35
2022/08/23 07:23:47;;;;;;;;;;;;;;;25.55;97.76;101517.50;5049591;28;20007;-32
2022/08/23 07:26:16;;;;;;;;;;;;;;;26.14;93.99;101527.34;5049158;28;19931;-34
2022/08/23 07:28:44;;;;;;;;;;;;;;;26.60;86.66;101527.88;5050530;28;20341;-31
2022/08/23 07:31:13;;;;;;;;;;;;;;;26.91;88.20;101526.56;5049384;28;20306;-38
2022/08/23 07:33:42;;;;;;;;;;;;;;;27.40;86.53;101529.03;5048883;28;19925;-36
2022/08/23 07:36:16;;;;;;;;;;;;;;;27.72;79.99;101532.19;5049577;28;19937;-33
2022/08/23 07:38:45;;;;;;;;;;;;;;;27.87;79.77;101529.38;5048841;28;19979;-36
2022/08/23 07:41:16;;;;;;;;;;;;;;;28.13;80.34;101527.06;5049209;28;19978;-33
2022/08/23 07:43:44;;;;;;;;;;;;;;;28.41;76.51;101532.09;5049154;28;19931;-37
2022/08/23 07:46:13;;;;;;;;;;;;;;;28.64;75.36;101533.78;5078328;28;20160;-34
2022/08/23 07:48:41;;;;;;;;;;;;;;;29.02;76.65;101544.56;5048470;28;19925;-35
2022/08/23 07:51:24;;;;;;;;;;;;;;;29.53;75.13;101554.88;5046486;28;19979;-35
2022/08/23 07:53:52;;;;;;;;;;;;;;;30.17;70.39;101548.16;5049251;28;19925;-37
2022/08/23 07:56:22;;;;;;;;;;;;;;;30.56;65.44;101554.56;5049182;28;19935;-35
2022/08/23 07:59:16;;;;;;;;;;;;;;;30.63;65.17;101566.03;5050017;28;19925;-41
2022/08/23 08:02:03;;;;;;;;;;;;;;;30.47;64.96;101575.16;5050771;28;20293;-41
2022/08/23 08:04:31;;;;;;;;;;;;;;;30.22;66.17;101568.69;5045976;28;20341;-34
2022/08/23 08:06:59;;;;;;;;;;;;;;;30.04;65.65;101570.81;5049286;28;19924;-36
2022/08/23 08:09:51;;;;;;;;;;;;;;;29.78;66.38;101572.06;5049432;28;19932;-43
2022/08/23 08:12:21;;;;;;;;;;;;;;;29.73;68.75;101572.50;5049567;28;19925;-32
2022/08/23 08:14:52;;;;;;;;;;;;;;;29.94;67.81;101571.63;5044820;28;19925;-34
2022/08/23 08:17:23;;;;;;;;;;;;;;;29.85;64.49;101565.47;5049095;28;20370;-41
2022/08/23 08:20:04;;;;;;;;;;;;;;;29.70;65.31;101571.28;5046885;28;20027;-34
2022/08/23 08:22:50;;;;;;;;;;;;;;;29.68;69.50;101582.38;5049259;28;19955;-35
2022/08/23 08:25:45;;;;;;;;;;;;;;;29.88;67.03;101576.97;5050897;28;20079;-39
2022/08/23 08:28:16;;;;;;;;;;;;;;;30.29;65.26;101567.84;5052614;28;19925;-35
2022/08/23 08:30:44;;;;;;;;;;;;;;;30.87;66.79;101574.97;5053131;28;19925;-36
2022/08/23 08:33:14;;;;;;;;;;;;;;;31.30;62.79;101587.03;5053028;28;19987;-34
2022/08/23 08:35:47;;;;;;;;;;;;;;;31.39;59.90;101585.28;5052599;28;19925;-33
2022/08/23 08:38:28;;;;;;;;;;;;;;;31.49;59.77;101583.56;5042551;28;19925;-31
2022/08/23 08:41:01;;;;;;;;;;;;;;;31.48;57.79;101591.41;5052471;28;19994;-34
2022/08/23 08:43:35;;;;;;;;;;;;;;;31.45;59.64;101591.44;5051830;28;19925;-33
2022/08/23 08:46:05;;;;;;;;;;;;;;;31.45;59.00;101594.31;5052860;28;19956;-35
2022/08/23 08:48:40;;;;;;;;;;;;;;;31.46;59.09;101593.91;5052129;28;19970;-34
2022/08/23 08:51:14;;;;;;;;;;;;;;;31.38;57.79;101592.31;5049354;28;19925;-34
2022/08/23 08:53:46;;;;;;;;;;;;;;;31.23;59.36;101602.31;5052982;28;19929;-37
2022/08/23 08:56:28;;;;;;;;;;;;;;;31.11;60.35;101602.84;5048926;28;19932;-34
2022/08/23 08:59:15;;;;;;;;;;;;;;;31.04;60.36;101599.97;5045744;28;20015;-32
2022/08/23 09:01:42;;;;;;;;;;;;;;;30.94;60.04;101597.97;5051347;28;19933;-38
2022/08/23 09:04:11;;;;;;;;;;;;;;;30.85;60.92;101604.19;5052180;28;19925;-34
2022/08/23 09:06:47;;;;;;;;;;;;;;;30.78;60.86;101599.28;5052056;28;19933;-36
2022/08/23 09:09:21;;;;;;;;;;;;;;;30.71;61.20;101608.00;5052231;28;19931;-35
2022/08/23 09:11:55;;;;;;;;;;;;;;;30.57;60.60;101608.06;5049220;28;19928;-33
2022/08/23 09:14:39;;;;;;;;;;;;;;;30.36;61.63;101614.72;5052444;28;19960;-37
2022/08/23 09:17:15;;;;;;;;;;;;;;;30.26;63.02;101608.97;5049840;28;20019;-35
2022/08/23 09:19:45;;;;;;;;;;;;;;;30.18;62.82;101604.50;5052078;28;19929;-35
2022/08/23 09:22:15;;;;;;;;;;;;;;;30.13;63.37;101606.56;5051370;28;19929;-38
2022/08/23 09:24:43;;;;;;;;;;;;;;;30.07;62.86;101607.41;5051755;28;19935;-39
2022/08/23 09:27:19;;;;;;;;;;;;;;;30.00;62.53;101604.53;5051262;28;20036;-31
2022/08/23 09:29:55;;;;;;;;;;;;;;;29.88;63.64;101600.00;5052470;28;19976;-37
2022/08/23 09:32:28;;;;;;;;;;;;;;;29.78;63.75;101603.72;5050852;28;19929;-33
2022/08/23 09:35:05;;;;;;;;;;;;;;;29.75;64.42;101595.94;5049201;28;19924;-35
2022/08/23 09:37:45;;;;;;;;;;;;;;;29.66;64.52;101599.22;5050166;28;19932;-40
2022/08/23 09:40:14;;;;;;;;;;;;;;;29.60;65.37;101594.28;5051155;28;20027;-38
2022/08/23 09:42:46;;;;;;;;;;;;;;;29.56;65.87;101588.56;5050526;28;19929;-42
2022/08/23 09:45:28;;;;;;;;;;;;;;;29.55;66.15;101591.84;5047944;28;19998;-35
2022/08/23 09:48:01;;;;;;;;;;;;;;;29.61;66.69;101585.25;5049062;28;19929;-36
2022/08/23 09:50:37;;;;;;;;;;;;;;;29.70;66.31;101588.53;5051674;28;19925;-38
2022/08/23 09:53:06;;;;;;;;;;;;;;;29.87;65.71;101586.84;5049670;28;19925;-32
2022/08/23 09:55:36;;;;;;;;;;;;;;;29.93;65.56;101593.84;5047311;28;19980;-39
2022/08/23 09:58:07;;;;;;;;;;;;;;;30.05;65.74;101586.84;5051228;28;20286;-38
2022/08/23 10:00:36;;;;;;;;;;;;;;;30.15;64.97;101591.75;5051722;28;20064;-37
2022/08/23 10:03:25;;;;;;;;;;;;;;;30.08;65.14;101583.94;5051265;28;20015;-33
2022/08/23 10:05:59;;;;;;;;;;;;;;;29.79;64.28;101591.78;5049867;28;20024;-33
2022/08/23 10:08:33;;;;;;;;;;;;;;;29.60;66.02;101585.66;5050331;28;19925;-34
2022/08/23 10:11:09;;;;;;;;;;;;;;;29.54;66.00;101584.44;5051565;28;19936;-30
2022/08/23 10:13:39;;;;;;;;;;;;;;;29.48;66.86;101578.28;5051651;28;19931;-34
2022/08/23 10:16:14;;;;;;;;;;;;;;;29.46;64.01;101583.63;5050431;28;20397;-36
2022/08/23 10:18:56;;;;;;;;;;;;;;;29.28;65.74;101583.59;5050604;28;19978;-29
2022/08/23 10:21:31;;;;;;;;;;;;;;;29.26;67.45;101593.84;5033531;28;20610;-30
2022/08/23 10:24:11;;;;;;;;;;;;;;;29.22;68.08;101596.72;5050904;28;19931;-37
2022/08/23 10:26:42;;;;;;;;;;;;;;;29.30;69.90;101598.38;5050848;28;19931;-28
2022/08/23 10:29:36;;;;;;;;;;;;;;;29.42;68.40;101595.13;5050606;28;19974;-29
2022/08/23 10:32:12;;;;;;;;;;;;;;;29.43;66.17;101590.19;5050541;28;19925;-29
2022/08/23 10:35:00;;;;;;;;;;;;;;;29.55;67.29;101600.47;5048840;28;19954;-31
2022/08/23 10:37:34;;;;;;;;;;;;;;;29.69;66.61;101598.41;5039529;28;19931;-31
2022/08/23 10:40:07;;;;;;;;;;;;;;;29.77;66.59;101594.28;5050269;28;19929;-34
2022/08/23 10:42:43;;;;;;;;;;;;;;;29.68;63.77;101599.63;5039829;28;19925;-28
2022/08/23 10:45:16;;;;;;;;;;;;;;;29.55;65.05;101604.16;5050453;28;19929;-29
2022/08/23 10:47:54;;;;;;;;;;;;;;;29.41;63.05;101599.22;5039012;28;20549;-29
2022/08/23 10:50:27;;;;;;;;;;;;;;;29.36;66.98;101590.19;5049285;28;19978;-32
2022/08/23 10:52:57;;;;;;;;;;;;;;;29.40;65.88;101593.88;5039773;28;20023;-29
2022/08/23 10:55:34;;;;;;;;;;;;;;;29.28;64.26;101589.34;5049010;28;19925;-29
2022/08/23 10:58:05;;;;;;;;;;;;;;;29.12;65.76;101600.41;5050252;28;19933;-30
2022/08/23 11:00:34;;;;;;;;;;;;;;;28.96;65.49;101602.88;5050555;28;19929;-31
2022/08/23 11:03:09;;;;;;;;;;;;;;;28.88;68.34;101593.41;5051625;28;19925;-28
2022/08/23 11:05:37;;;;;;;;;;;;;;;28.88;67.23;101598.31;5045346;28;20439;-35
2022/08/23 11:08:28;;;;;;;;;;;;;;;28.76;65.79;101597.47;5049839;28;19925;-28
2022/08/23 11:10:56;;;;;;;;;;;;;;;28.58;65.30;101601.50;5048673;28;19929;-30
2022/08/23 11:13:33;;;;;;;;;;;;;;;28.51;68.45;101604.34;5049618;28;19929;-29
2022/08/23 11:16:04;;;;;;;;;;;;;;;28.34;67.67;101615.34;5049428;28;20274;-29
2022/08/23 11:18:38;;;;;;;;;;;;;;;28.10;69.14;101607.41;5050153;28;19968;-29
2022/08/23 11:21:08;;;;;;;;;;;;;;;27.92;72.50;101615.91;5046803;28;19929;-30
2022/08/23 11:23:48;;;;;;;;;;;;;;;27.90;73.07;101614.66;5049691;28;20404;-31
2022/08/23 11:26:36;;;;;;;;;;;;;;;27.87;73.22;101618.31;5046557;28;19925;-29
2022/08/23 11:29:19;;;;;;;;;;;;;;;27.66;71.88;101608.31;5049681;28;19925;-30
2022/08/23 11:31:59;;;;;;;;;;;;;;;27.38;72.99;101619.53;5061886;28;19925;-29
2022/08/23 11:34:30;;;;;;;;;;;;;;;27.27;76.15;101616.56;5050302;28;19925;-30
2022/08/23 11:37:25;;;;;;;;;;;;;;;27.34;77.18;101624.44;5038208;28;19967;-30
2022/08/23 11:40:04;;;;;;;;;;;;;;;27.35;77.13;101620.34;5050181;28;20334;-29
2022/08/23 11:42:45;;;;;;;;;;;;;;;27.41;78.14;101621.59;5050185;28;19933;-30
2022/08/23 11:45:32;;;;;;;;;;;;;;;27.51;77.89;101623.75;5050883;28;19925;-34
2022/08/23 11:48:11;;;;;;;;;;;;;;;27.73;77.00;101625.59;5049643;28;20015;-33
2022/08/23 11:50:45;;;;;;;;;;;;;;;27.97;75.85;101631.91;5050814;28;19935;-29
2022/08/23 11:53:24;;;;;;;;;;;;;;;28.24;75.85;101626.75;5051084;28;20290;-33
2022/08/23 11:56:09;;;;;;;;;;;;;;;28.63;74.61;101626.94;5051335;28;19939;-33
2022/08/23 11:58:50;;;;;;;;;;;;;;;28.85;71.55;101619.25;5050131;28;19928;-29
2022/08/23 12:01:27;;;;;;;;;;;;;;;29.12;69.44;101618.50;5054284;28;19925;-38
2022/08/23 12:03:56;;;;;;;;;;;;;;;29.37;66.58;101621.41;5055366;28;20275;-31
2022/08/23 12:06:38;;;;;;;;;;;;;;;29.51;66.09;101616.91;5054523;28;19929;-28
2022/08/23 12:09:12;;;;;;;;;;;;;;;29.70;63.73;101620.19;5053172;28;19931;-30
2022/08/23 12:11:59;;;;;;;;;;;;;;;29.80;63.11;101621.38;5055347;28;19925;-29
2022/08/23 12:14:36;;;;;;;;;;;;;;;29.78;60.31;101618.91;5054735;28;19925;-32
2022/08/23 12:17:05;;;;;;;;;;;;;;;29.73;61.82;101616.47;5049347;28;19933;-33
2022/08/23 12:19:34;;;;;;;;;;;;;;;29.82;63.12;101614.00;5052516;28;19967;-29
2022/08/23 12:22:10;;;;;;;;;;;;;;;30.05;63.51;101612.75;5053684;28;19925;-31
2022/08/23 12:24:42;;;;;;;;;;;;;;;30.10;60.12;101609.44;5054984;28;20019;-30
2022/08/23 12:27:18;;;;;;;;;;;;;;;30.10;60.37;101612.31;5054181;28;19932;-29
2022/08/23 12:29:52;;;;;;;;;;;;;;;30.08;59.41;101620.56;5054000;28;19929;-36
2022/08/23 12:32:24;;;;;;;;;;;;;;;29.91;59.93;101615.63;5054251;28;20301;-29
2022/08/23 12:35:03;;;;;;;;;;;;;;;29.64;61.61;101607.44;5054648;28;19932;-34
2022/08/23 12:37:35;;;;;;;;;;;;;;;29.44;62.06;101604.16;5054281;28;19936;-29
2022/08/23 12:40:07;;;;;;;;;;;;;;;29.43;62.15;101593.06;5053991;28;19946;-35
2022/08/23 12:42:36;;;;;;;;;;;;;;;29.54;63.73;101591.03;5054555;28;19929;-38
2022/08/23 12:45:07;;;;;;;;;;;;;;;29.60;62.36;101600.03;5054106;28;19931;-32
2022/08/23 12:47:35;;;;;;;;;;;;;;;29.60;61.51;101600.03;5053677;28;19924;-30
2022/08/23 12:50:24;;;;;;;;;;;;;;;29.66;61.21;101596.34;5052443;28;19947;-29
2022/08/23 12:53:00;;;;;;;;;;;;;;;29.75;60.73;101599.63;5050517;28;20417;-38
2022/08/23 12:55:31;;;;;;;;;;;;;;;29.77;61.87;101602.91;5053536;28;19929;-28
2022/08/23 12:57:59;;;;;;;;;;;;;;;29.89;61.53;101606.59;5052573;28;19925;-33
2022/08/23 13:00:29;;;;;;;;;;;;;;;29.93;58.45;101610.28;5054007;28;19932;-34
2022/08/23 13:02:58;;;;;;;;;;;;;;;30.00;60.48;101616.84;5053385;28;19925;-31
2022/08/23 13:05:36;;;;;;;;;;;;;;;30.09;58.99;101604.94;5053575;28;19931;-29
2022/08/23 13:08:05;;;;;;;;;;;;;;;29.98;58.83;101604.13;5053395;28;19940;-31
2022/08/23 13:10:35;;;;;;;;;;;;;;;29.74;58.11;101618.13;5053153;28;19928;-29